Archival Weather

Wadi Al Dawasir

Wadi Al Dawasir, Saudi Arabia (OEWD)

Report from: Sunday, October 1, 2023 3:00 PM +03
Current time: Monday, February 26, 2024 1:01 AM +03

Current weather – Weather history – Daily summaries
Weather forecast

Temperature40.0°C (104.0°F)
Heat index36.7°C (98.1°F)
Dew point-2.0°C (28.4°F)
Winds 10 kts (5.1 m/s, 11.5 mph) East-Southeast (110°)
Clouds Sky clear
Altimeter29.85 in.Hg (1011 mB)
Relative humidity7 %
Density altitude2,972 ft. (906 m)
Remarks Ceiling and visibility OK
Flight conditions Visual Meteorological Conditions
Raw dataOEWD 011200Z 11010KT CAVOK 40/M02 Q1011
An error has occurred. This application may no longer respond until reloaded. Reload 🗙